createdAt,value
2023-12-24T00:02:23.779Z,1.52
2023-12-24T00:05:26.036Z,2.37
2023-12-24T00:08:30.245Z,3.50
2023-12-24T00:11:32.843Z,4.82
2023-12-24T00:14:35.081Z,2.97
2023-12-24T00:17:37.321Z,3.22
2023-12-24T00:20:39.541Z,2.77
2023-12-24T00:23:43.741Z,3.50
2023-12-24T00:26:45.748Z,3.47
2023-12-24T00:29:47.727Z,2.85
2023-12-24T00:32:49.978Z,3.22
2023-12-24T00:35:52.104Z,3.43
2023-12-24T00:38:54.047Z,2.97
2023-12-24T00:41:56.034Z,3.08
2023-12-24T00:44:58.153Z,4.47
2023-12-24T00:48:01.904Z,5.82
2023-12-24T00:51:05.328Z,5.80
2023-12-24T00:54:09.540Z,6.80
2023-12-24T00:57:11.504Z,8.27
2023-12-24T01:00:15.026Z,8.90
2023-12-24T01:03:17.075Z,8.27
2023-12-24T01:06:19.661Z,8.13
2023-12-24T01:09:22.075Z,6.67
2023-12-24T01:12:24.013Z,5.63
2023-12-24T01:15:26.007Z,5.97
2023-12-24T01:18:28.559Z,6.78
2023-12-24T01:21:30.875Z,5.17
2023-12-24T01:24:32.931Z,8.17
2023-12-24T01:27:34.885Z,6.18
2023-12-24T01:30:37.307Z,6.22
2023-12-24T01:33:40.208Z,4.47
2023-12-24T01:36:42.284Z,5.83
2023-12-24T01:39:44.222Z,7.47
2023-12-24T01:42:47.233Z,7.03
2023-12-24T01:45:49.853Z,4.13
2023-12-24T01:48:52.080Z,9.00
2023-12-24T01:51:55.618Z,6.30
2023-12-24T01:54:58.362Z,4.97
2023-12-24T01:58:00.453Z,4.70
2023-12-24T02:01:02.903Z,9.00
2023-12-24T02:04:05.447Z,15.23
2023-12-24T02:07:08.817Z,17.23
2023-12-24T02:10:11.192Z,10.73
2023-12-24T02:13:14.051Z,10.73
2023-12-24T02:16:22.596Z,7.05
2023-12-24T02:19:27.906Z,6.43
2023-12-24T02:22:30.038Z,6.73
2023-12-24T02:25:33.114Z,10.70
2023-12-24T02:28:43.434Z,7.63
2023-12-24T02:31:50.496Z,8.38
2023-12-24T02:34:54.614Z,10.02
2023-12-24T02:37:56.928Z,10.43
2023-12-24T02:40:59.145Z,11.00
2023-12-24T02:44:01.624Z,8.55
2023-12-24T02:47:04.403Z,8.02
2023-12-24T02:50:07.411Z,9.55
2023-12-24T02:53:09.600Z,16.10
2023-12-24T02:56:11.772Z,17.37
2023-12-24T02:59:13.805Z,25.00
2023-12-24T03:02:15.947Z,19.40
2023-12-24T03:05:18.333Z,9.82
2023-12-24T03:08:20.832Z,6.73
2023-12-24T03:11:22.844Z,7.23
2023-12-24T03:14:25.104Z,4.45
2023-12-24T03:17:27.414Z,5.30
2023-12-24T03:20:29.550Z,3.63
2023-12-24T03:23:32.724Z,4.83
2023-12-24T03:26:35.274Z,4.97
2023-12-24T03:29:37.688Z,5.22
2023-12-24T03:32:40.049Z,4.47
2023-12-24T03:35:44.533Z,3.72
2023-12-24T03:38:46.964Z,4.23
2023-12-24T03:41:49.511Z,5.30
2023-12-24T03:44:52.213Z,5.38
2023-12-24T03:47:54.724Z,5.60
2023-12-24T03:50:56.752Z,7.78
2023-12-24T03:53:59.352Z,7.40
2023-12-24T03:57:01.656Z,9.03
2023-12-24T04:00:03.879Z,9.32
2023-12-24T04:03:06.844Z,10.48
2023-12-24T04:06:33.028Z,9.10
2023-12-24T04:09:36.438Z,20.17
2023-12-24T04:12:43.875Z,12.30
2023-12-24T04:15:46.386Z,13.35
2023-12-24T04:18:48.593Z,12.25
2023-12-24T04:21:50.998Z,21.02
2023-12-24T04:24:53.485Z,14.43
2023-12-24T04:27:55.631Z,23.73
2023-12-24T04:30:57.735Z,17.83
2023-12-24T04:34:00.085Z,20.65
2023-12-24T04:37:02.221Z,16.48
2023-12-24T04:40:06.075Z,19.07
2023-12-24T04:43:08.454Z,14.33
2023-12-24T04:46:10.482Z,12.05
2023-12-24T04:49:12.770Z,10.25
2023-12-24T04:52:15.191Z,11.73
2023-12-24T04:55:17.657Z,30.43
2023-12-24T04:58:22.052Z,22.47
2023-12-24T05:01:24.517Z,29.00
2023-12-24T05:04:28.406Z,41.38
2023-12-24T05:07:31.310Z,20.52
2023-12-24T05:10:34.887Z,14.93
2023-12-24T05:13:37.786Z,16.53
2023-12-24T05:16:39.941Z,24.25
2023-12-24T05:19:44.704Z,20.65
2023-12-24T05:22:47.150Z,14.95
2023-12-24T05:25:49.517Z,14.33
2023-12-24T05:28:54.742Z,14.40
2023-12-24T05:31:59.372Z,13.40
2023-12-24T05:35:02.017Z,12.05
2023-12-24T05:38:04.556Z,10.43
2023-12-24T05:41:10.155Z,9.27
2023-12-24T05:44:12.505Z,8.53
2023-12-24T05:47:14.737Z,18.88
2023-12-24T05:50:19.491Z,20.48
2023-12-24T05:53:24.777Z,22.83
2023-12-24T05:56:29.556Z,21.13
2023-12-24T05:59:32.728Z,15.27
2023-12-24T06:02:37.258Z,15.02
2023-12-24T06:05:46.542Z,10.50
2023-12-24T06:08:49.220Z,15.93
2023-12-24T06:11:51.985Z,11.47
2023-12-24T06:14:54.953Z,8.70
2023-12-24T06:17:57.740Z,9.25
2023-12-24T06:21:06.475Z,7.90
2023-12-24T06:24:09.016Z,9.90
2023-12-24T06:27:14.447Z,9.77
2023-12-24T06:30:21.391Z,8.97
2023-12-24T06:33:24.024Z,9.38
2023-12-24T06:36:32.474Z,10.30
2023-12-24T06:39:41.331Z,15.32
2023-12-24T06:42:44.567Z,18.57
2023-12-24T06:45:47.292Z,18.80
2023-12-24T06:48:50.483Z,18.60
2023-12-24T06:51:54.904Z,24.23
2023-12-24T06:54:57.869Z,19.92
2023-12-24T06:58:04.328Z,28.47
2023-12-24T07:01:14.833Z,26.00
2023-12-24T07:04:24.027Z,19.05
2023-12-24T07:07:27.874Z,15.40
2023-12-24T07:10:30.197Z,14.93
2023-12-24T07:13:32.386Z,10.03
2023-12-24T07:16:36.768Z,10.80
2023-12-24T07:19:40.548Z,10.68
2023-12-24T07:22:42.638Z,13.45
2023-12-24T07:25:44.891Z,9.95
2023-12-24T07:28:48.907Z,16.93
2023-12-24T07:31:51.241Z,17.77
2023-12-24T07:34:55.419Z,13.40
2023-12-24T07:37:57.929Z,9.57
2023-12-24T07:41:00.364Z,12.40
2023-12-24T07:44:02.822Z,14.57
2023-12-24T07:47:05.087Z,18.10
2023-12-24T07:50:08.775Z,19.73
2023-12-24T07:53:11.047Z,8.48
2023-12-24T07:56:14.931Z,7.78
2023-12-24T07:59:17.193Z,6.83
2023-12-24T08:02:19.673Z,8.17
2023-12-24T08:05:21.691Z,6.95
2023-12-24T08:08:23.813Z,4.40
2023-12-24T08:11:26.945Z,7.93
2023-12-24T08:14:30.617Z,3.70
2023-12-24T08:17:33.069Z,2.27
2023-12-24T08:20:38.089Z,2.63
2023-12-24T08:23:40.958Z,3.92
2023-12-24T08:26:43.460Z,2.30
2023-12-24T08:29:45.601Z,2.47
2023-12-24T08:32:47.594Z,3.60
2023-12-24T08:35:49.566Z,2.58
2023-12-24T08:38:51.640Z,6.60
2023-12-24T08:41:53.667Z,6.65
2023-12-24T08:44:55.841Z,12.77
2023-12-24T08:47:58.845Z,8.13
2023-12-24T08:51:05.885Z,14.13
2023-12-24T08:54:08.233Z,5.60
2023-12-24T08:57:10.883Z,7.38
2023-12-24T09:00:14.134Z,6.80
2023-12-24T09:03:18.498Z,9.80
2023-12-24T09:06:23.677Z,6.57
2023-12-24T09:09:26.162Z,7.65
2023-12-24T09:12:28.824Z,8.30
2023-12-24T09:15:30.924Z,7.30
2023-12-24T09:18:35.066Z,8.23
2023-12-24T09:21:37.227Z,8.82
2023-12-24T09:24:40.560Z,7.15
2023-12-24T09:27:42.402Z,9.98
2023-12-24T09:30:44.682Z,7.77
2023-12-24T09:33:47.089Z,9.60
2023-12-24T09:36:49.377Z,9.32
2023-12-24T09:39:51.403Z,8.40
2023-12-24T09:42:54.812Z,10.80
2023-12-24T09:45:57.170Z,11.43
2023-12-24T09:48:59.293Z,8.07
2023-12-24T09:52:01.893Z,9.13
2023-12-24T09:55:05.124Z,10.70
2023-12-24T09:58:07.374Z,9.68
2023-12-24T10:01:09.628Z,13.43
2023-12-24T10:04:15.716Z,15.10
2023-12-24T10:07:18.892Z,13.90
2023-12-24T10:10:31.071Z,21.83
2023-12-24T10:13:33.178Z,19.90
2023-12-24T10:16:47.450Z,15.60
2023-12-24T10:19:49.704Z,7.83
2023-12-24T10:23:06.632Z,5.55
2023-12-24T10:26:13.537Z,8.05
2023-12-24T10:29:24.360Z,3.90
2023-12-24T10:32:34.438Z,1.57
2023-12-24T10:35:39.973Z,1.30
2023-12-24T10:38:43.337Z,1.45
2023-12-24T10:41:49.738Z,2.97
2023-12-24T10:44:58.514Z,0.63
2023-12-24T10:48:02.480Z,0.87
2023-12-24T10:51:05.166Z,1.37
2023-12-24T10:54:12.138Z,0.60
2023-12-24T10:57:52.012Z,0.95
2023-12-24T11:00:55.158Z,0.47
2023-12-24T11:03:58.585Z,0.83
2023-12-24T11:07:06.393Z,0.40
2023-12-24T11:10:08.558Z,0.70
2023-12-24T11:16:57.232Z,0.30
2023-12-24T11:20:24.955Z,0.30
2023-12-24T11:23:27.064Z,1.47
2023-12-24T11:26:33.655Z,0.50
2023-12-24T11:29:50.433Z,0.75
2023-12-24T11:32:53.238Z,1.33
2023-12-24T11:36:01.784Z,0.40
2023-12-24T11:39:05.052Z,0.90
2023-12-24T11:42:07.415Z,0.40
2023-12-24T11:45:20.458Z,0.40
2023-12-24T11:48:31.420Z,2.25
2023-12-24T11:51:33.935Z,1.10
2023-12-24T11:54:36.134Z,0.63
2023-12-24T11:57:38.737Z,1.05
2023-12-24T12:00:40.824Z,0.75
2023-12-24T12:03:43.231Z,0.65
2023-12-24T12:06:51.048Z,0.43
2023-12-24T12:09:53.597Z,0.83
2023-12-24T12:12:58.344Z,1.42
2023-12-24T12:16:03.240Z,1.92
2023-12-24T12:19:09.164Z,0.30
2023-12-24T12:22:15.518Z,0.40
2023-12-24T12:25:22.890Z,0.50
2023-12-24T12:28:31.996Z,2.20
2023-12-24T12:32:02.303Z,1.85
2023-12-24T12:35:11.379Z,1.35
2023-12-24T12:38:20.618Z,0.80
2023-12-24T12:41:26.910Z,0.43
2023-12-24T12:44:34.553Z,0.63
2023-12-24T12:47:44.979Z,1.42
2023-12-24T12:50:59.163Z,0.52
2023-12-24T12:54:07.927Z,0.77
2023-12-24T12:57:14.262Z,1.03
2023-12-24T13:00:32.610Z,0.90
2023-12-24T13:04:04.678Z,2.30
2023-12-24T13:07:10.077Z,3.50
2023-12-24T13:10:34.298Z,4.53
2023-12-24T13:13:39.493Z,5.33
2023-12-24T13:16:43.286Z,9.75
2023-12-24T13:19:46.665Z,16.25
2023-12-24T13:22:49.579Z,19.58
2023-12-24T13:25:52.743Z,10.53
2023-12-24T13:28:58.887Z,10.47
2023-12-24T13:32:01.134Z,11.13
2023-12-24T13:35:03.500Z,9.18
2023-12-24T13:38:09.560Z,11.93
2023-12-24T13:41:12.866Z,8.33
2023-12-24T13:44:16.010Z,7.23
2023-12-24T13:47:18.308Z,9.30
2023-12-24T13:50:21.731Z,6.50
2023-12-24T13:53:31.352Z,5.15
2023-12-24T13:56:35.110Z,4.83
2023-12-24T13:59:37.253Z,8.70
2023-12-24T14:02:39.608Z,6.05
2023-12-24T14:05:41.983Z,8.30
2023-12-24T14:08:45.440Z,14.20
2023-12-24T14:11:48.102Z,8.77
2023-12-24T14:14:51.932Z,9.83
2023-12-24T14:17:54.384Z,8.15
2023-12-24T14:20:56.526Z,5.22
2023-12-24T14:24:01.008Z,6.05
2023-12-24T14:27:04.553Z,7.77
2023-12-24T14:30:08.993Z,6.70
2023-12-24T14:33:12.896Z,7.25
2023-12-24T14:36:16.031Z,9.80
2023-12-24T14:39:18.410Z,10.68
2023-12-24T14:42:24.175Z,8.80
2023-12-24T14:45:26.414Z,9.00
2023-12-24T14:48:30.275Z,7.95
2023-12-24T14:51:33.149Z,8.55
2023-12-24T14:54:36.252Z,7.75
2023-12-24T14:57:39.744Z,12.40
2023-12-24T15:00:42.775Z,10.00
2023-12-24T15:03:45.171Z,9.20
2023-12-24T15:06:49.857Z,7.22
2023-12-24T15:09:52.547Z,7.65
2023-12-24T15:12:55.007Z,10.60
2023-12-24T15:15:58.188Z,9.73
2023-12-24T15:19:00.614Z,16.50
2023-12-24T15:22:04.552Z,14.00
2023-12-24T15:25:06.672Z,11.80
2023-12-24T15:28:08.893Z,10.47
2023-12-24T15:31:14.526Z,12.70
2023-12-24T15:34:17.132Z,10.90
2023-12-24T15:37:22.238Z,12.43
2023-12-24T15:40:24.730Z,11.73
2023-12-24T15:43:27.404Z,11.17
2023-12-24T15:46:29.726Z,11.20
2023-12-24T15:49:32.019Z,11.15
2023-12-24T15:52:37.159Z,10.90
2023-12-24T15:55:39.456Z,11.60
2023-12-24T15:58:41.854Z,12.23
2023-12-24T16:01:45.274Z,12.73
2023-12-24T16:04:48.444Z,12.13
2023-12-24T16:07:51.184Z,13.05
2023-12-24T16:10:53.495Z,17.42
2023-12-24T16:13:55.651Z,15.30
2023-12-24T16:16:59.237Z,18.20
2023-12-24T16:20:01.421Z,16.63
2023-12-24T16:23:10.404Z,13.60
2023-12-24T16:26:18.860Z,14.50
2023-12-24T16:29:25.366Z,17.87
2023-12-24T16:32:31.614Z,16.43
2023-12-24T16:35:38.518Z,18.80
2023-12-24T16:38:42.070Z,14.27
2023-12-24T16:41:46.687Z,10.25
2023-12-24T16:44:57.829Z,12.80
2023-12-24T16:48:00.332Z,12.27
2023-12-24T16:51:02.770Z,12.65
2023-12-24T16:54:05.316Z,11.50
2023-12-24T16:57:07.698Z,10.23
2023-12-24T17:00:10.467Z,8.97
2023-12-24T17:03:13.133Z,8.03
2023-12-24T17:06:15.767Z,8.55
2023-12-24T17:09:21.432Z,7.10
2023-12-24T17:12:23.783Z,7.85
2023-12-24T17:15:30.112Z,6.10
2023-12-24T17:18:36.360Z,6.07
2023-12-24T17:21:39.213Z,4.70
2023-12-24T17:24:43.414Z,12.55
2023-12-24T17:27:49.663Z,6.63
2023-12-24T17:30:52.111Z,4.73
2023-12-24T17:33:56.747Z,4.37
2023-12-24T17:37:01.874Z,6.32
2023-12-24T17:40:05.132Z,5.95
2023-12-24T17:43:07.377Z,6.03
2023-12-24T17:46:09.446Z,7.90
2023-12-24T17:49:12.720Z,7.73
2023-12-24T17:52:16.705Z,7.78
2023-12-24T17:55:18.867Z,5.88
2023-12-24T17:58:29.843Z,4.28
2023-12-24T18:01:32.592Z,3.63
2023-12-24T18:04:35.781Z,3.07
2023-12-24T18:07:38.973Z,2.03
2023-12-24T18:10:41.816Z,2.45
2023-12-24T18:13:44.080Z,3.58
2023-12-24T18:16:46.436Z,1.90
2023-12-24T18:19:48.613Z,1.60
2023-12-24T18:22:51.142Z,1.30
2023-12-24T18:25:56.071Z,1.67
2023-12-24T18:29:00.894Z,1.73
2023-12-24T18:32:04.805Z,2.10
2023-12-24T18:35:07.216Z,1.73
2023-12-24T18:38:09.357Z,3.25
2023-12-24T18:41:19.606Z,1.85
2023-12-24T18:44:22.406Z,2.60
2023-12-24T18:47:24.606Z,1.70
2023-12-24T18:50:26.757Z,1.07
2023-12-24T18:53:34.733Z,1.30
2023-12-24T18:56:39.035Z,0.82
2023-12-24T18:59:41.263Z,1.27
2023-12-24T19:02:43.583Z,0.40
2023-12-24T19:05:46.028Z,0.87
2023-12-24T19:08:48.238Z,1.67
2023-12-24T19:11:50.388Z,1.75
2023-12-24T19:14:52.662Z,0.70
2023-12-24T19:17:54.899Z,0.80
2023-12-24T19:20:57.111Z,0.57
2023-12-24T19:23:59.091Z,0.70
2023-12-24T19:27:02.251Z,0.52
2023-12-24T19:30:05.254Z,0.73
2023-12-24T19:33:08.853Z,1.27
2023-12-24T19:36:11.105Z,1.80
2023-12-24T19:39:22.885Z,2.88
2023-12-24T19:42:32.702Z,3.15
2023-12-24T19:45:35.238Z,4.10
2023-12-24T19:48:37.600Z,3.17
2023-12-24T19:51:40.916Z,3.53
2023-12-24T19:54:44.065Z,4.03
2023-12-24T19:57:46.734Z,4.05
2023-12-24T20:00:49.249Z,3.83
2023-12-24T20:03:51.341Z,3.17
2023-12-24T20:06:54.888Z,6.27
2023-12-24T20:09:56.994Z,2.67
2023-12-24T20:12:59.825Z,3.53
2023-12-24T20:16:02.139Z,2.67
2023-12-24T20:19:04.561Z,3.30
2023-12-24T20:22:06.914Z,2.83
2023-12-24T20:25:11.535Z,3.17
2023-12-24T20:28:13.780Z,3.35
2023-12-24T20:31:16.702Z,3.90
2023-12-24T20:34:18.697Z,3.43
2023-12-24T20:37:21.530Z,4.80
2023-12-24T20:40:23.831Z,4.47
2023-12-24T20:43:28.768Z,4.63
2023-12-24T20:46:30.894Z,3.63
2023-12-24T20:49:34.290Z,4.90
2023-12-24T20:52:36.558Z,4.30
2023-12-24T20:55:38.830Z,4.88
2023-12-24T20:58:41.245Z,7.00
2023-12-24T21:01:43.529Z,6.30
2023-12-24T21:04:45.656Z,4.70
2023-12-24T21:07:49.432Z,4.23
2023-12-24T21:10:51.597Z,5.57
2023-12-24T21:13:54.264Z,5.53
2023-12-24T21:16:56.153Z,4.50
2023-12-24T21:19:58.173Z,5.27
2023-12-24T21:23:01.060Z,3.67
2023-12-24T21:26:03.067Z,4.38
2023-12-24T21:29:05.562Z,5.07
2023-12-24T21:32:07.477Z,5.60
2023-12-24T21:35:09.837Z,4.30
2023-12-24T21:38:12.111Z,4.43
2023-12-24T21:41:15.821Z,3.85
2023-12-24T21:44:17.779Z,3.67
2023-12-24T21:47:20.669Z,4.93
2023-12-24T21:50:22.815Z,4.17
2023-12-24T21:53:25.369Z,5.27
2023-12-24T21:56:32.855Z,4.85
2023-12-24T21:59:35.590Z,5.35
2023-12-24T22:02:37.678Z,4.55
2023-12-24T22:05:40.891Z,5.17
2023-12-24T22:08:45.214Z,6.77
2023-12-24T22:11:47.405Z,5.68
2023-12-24T22:14:51.961Z,6.72
2023-12-24T22:17:57.202Z,6.13
2023-12-24T22:21:02.154Z,6.20
2023-12-24T22:24:04.810Z,6.47
2023-12-24T22:27:06.915Z,8.32
2023-12-24T22:30:10.930Z,9.55
2023-12-24T22:33:14.050Z,11.82
2023-12-24T22:36:16.342Z,8.07
2023-12-24T22:39:20.171Z,7.73
2023-12-24T22:42:22.116Z,9.10
2023-12-24T22:45:26.789Z,12.98
2023-12-24T22:48:28.983Z,13.35
2023-12-24T22:51:31.425Z,10.43
2023-12-24T22:54:33.509Z,11.27
2023-12-24T22:57:35.611Z,13.73
2023-12-24T23:00:37.639Z,13.98
2023-12-24T23:03:43.885Z,12.93
2023-12-24T23:06:46.106Z,17.70
2023-12-24T23:09:48.263Z,18.40
2023-12-24T23:12:50.689Z,17.02
2023-12-24T23:15:54.413Z,15.70
2023-12-24T23:18:56.855Z,15.55
2023-12-24T23:22:00.309Z,17.53
2023-12-24T23:25:04.471Z,18.43
2023-12-24T23:28:09.447Z,19.00
2023-12-24T23:31:11.572Z,19.30
2023-12-24T23:34:13.906Z,17.45
2023-12-24T23:37:16.497Z,18.07
2023-12-24T23:40:18.800Z,21.30
2023-12-24T23:43:25.451Z,20.65
2023-12-24T23:46:27.529Z,23.35
2023-12-24T23:49:32.656Z,22.33
2023-12-24T23:52:37.507Z,21.50
2023-12-24T23:55:39.704Z,20.93
2023-12-24T23:58:41.848Z,18.88
